sensor_id;sensor_type;location;lat;lon;timestamp;temperature;humidity
23347;DHT22;36852;45.466;11.066;2023-05-07T00:01:23;21.20;99.90
23347;DHT22;36852;45.466;11.066;2023-05-07T00:03:51;21.20;99.90
23347;DHT22;36852;45.466;11.066;2023-05-07T00:06:19;21.20;99.90
23347;DHT22;36852;45.466;11.066;2023-05-07T00:08:48;21.20;99.90
23347;DHT22;36852;45.466;11.066;2023-05-07T00:11:17;21.20;99.90
23347;DHT22;36852;45.466;11.066;2023-05-07T00:13:44;21.20;99.90
23347;DHT22;36852;45.466;11.066;2023-05-07T00:16:13;21.20;99.90
23347;DHT22;36852;45.466;11.066;2023-05-07T00:18:41;21.10;99.90
23347;DHT22;36852;45.466;11.066;2023-05-07T00:21:09;21.10;99.90
23347;DHT22;36852;45.466;11.066;2023-05-07T00:23:37;21.10;99.90
23347;DHT22;36852;45.466;11.066;2023-05-07T00:26:05;21.10;99.90
23347;DHT22;36852;45.466;11.066;2023-05-07T00:28:33;21.10;99.90
23347;DHT22;36852;45.466;11.066;2023-05-07T00:31:01;21.10;99.90
23347;DHT22;36852;45.466;11.066;2023-05-07T00:33:29;21.10;99.90
23347;DHT22;36852;45.466;11.066;2023-05-07T00:35:57;21.10;99.90
23347;DHT22;36852;45.466;11.066;2023-05-07T00:38:24;21.10;99.90
23347;DHT22;36852;45.466;11.066;2023-05-07T00:40:53;21.00;99.90
23347;DHT22;36852;45.466;11.066;2023-05-07T00:43:40;21.10;99.90
23347;DHT22;36852;45.466;11.066;2023-05-07T00:46:08;21.10;99.90
23347;DHT22;36852;45.466;11.066;2023-05-07T00:48:39;21.10;99.90
23347;DHT22;36852;45.466;11.066;2023-05-07T00:51:09;21.10;99.90
23347;DHT22;36852;45.466;11.066;2023-05-07T00:53:38;21.10;99.90
23347;DHT22;36852;45.466;11.066;2023-05-07T00:56:07;21.10;99.90
23347;DHT22;36852;45.466;11.066;2023-05-07T00:58:34;21.00;99.90
23347;DHT22;36852;45.466;11.066;2023-05-07T01:01:02;21.10;99.90
23347;DHT22;36852;45.466;11.066;2023-05-07T01:03:29;21.10;99.90
23347;DHT22;36852;45.466;11.066;2023-05-07T01:05:58;21.00;99.90
23347;DHT22;36852;45.466;11.066;2023-05-07T01:08:27;21.10;99.90
23347;DHT22;36852;45.466;11.066;2023-05-07T01:10:57;21.10;99.90
23347;DHT22;36852;45.466;11.066;2023-05-07T01:13:24;21.10;99.90
23347;DHT22;36852;45.466;11.066;2023-05-07T01:15:53;21.10;99.90
23347;DHT22;36852;45.466;11.066;2023-05-07T01:18:24;21.00;99.90
23347;DHT22;36852;45.466;11.066;2023-05-07T01:20:54;21.00;99.90
23347;DHT22;36852;45.466;11.066;2023-05-07T01:23:23;21.10;99.90
23347;DHT22;36852;45.466;11.066;2023-05-07T01:25:54;21.10;99.90
23347;DHT22;36852;45.466;11.066;2023-05-07T01:28:23;21.10;99.90
23347;DHT22;36852;45.466;11.066;2023-05-07T01:30:56;21.10;99.90
23347;DHT22;36852;45.466;11.066;2023-05-07T01:33:26;21.10;99.90
23347;DHT22;36852;45.466;11.066;2023-05-07T01:35:55;21.00;99.90
23347;DHT22;36852;45.466;11.066;2023-05-07T01:38:23;21.00;99.90
23347;DHT22;36852;45.466;11.066;2023-05-07T01:40:51;21.00;99.90
23347;DHT22;36852;45.466;11.066;2023-05-07T01:43:22;21.00;99.90
23347;DHT22;36852;45.466;11.066;2023-05-07T01:45:51;21.00;99.90
23347;DHT22;36852;45.466;11.066;2023-05-07T01:48:20;21.00;99.90
23347;DHT22;36852;45.466;11.066;2023-05-07T01:50:49;21.00;99.90
23347;DHT22;36852;45.466;11.066;2023-05-07T01:53:16;21.00;99.90
23347;DHT22;36852;45.466;11.066;2023-05-07T01:55:44;21.00;99.90
23347;DHT22;36852;45.466;11.066;2023-05-07T01:58:12;21.00;99.90
23347;DHT22;36852;45.466;11.066;2023-05-07T02:00:41;21.00;99.90
23347;DHT22;36852;45.466;11.066;2023-05-07T02:03:09;21.00;99.90
23347;DHT22;36852;45.466;11.066;2023-05-07T02:05:39;21.00;99.90
23347;DHT22;36852;45.466;11.066;2023-05-07T02:08:09;21.00;99.90
23347;DHT22;36852;45.466;11.066;2023-05-07T02:10:37;20.90;99.90
23347;DHT22;36852;45.466;11.066;2023-05-07T02:13:05;20.90;99.90
23347;DHT22;36852;45.466;11.066;2023-05-07T02:15:33;20.90;99.90
23347;DHT22;36852;45.466;11.066;2023-05-07T02:18:05;20.90;99.90
23347;DHT22;36852;45.466;11.066;2023-05-07T02:20:37;20.90;99.90
23347;DHT22;36852;45.466;11.066;2023-05-07T02:23:08;20.90;99.90
23347;DHT22;36852;45.466;11.066;2023-05-07T02:25:36;20.90;99.90
23347;DHT22;36852;45.466;11.066;2023-05-07T02:28:04;20.80;99.90
23347;DHT22;36852;45.466;11.066;2023-05-07T02:30:33;20.80;99.90
23347;DHT22;36852;45.466;11.066;2023-05-07T02:33:01;20.80;99.90
23347;DHT22;36852;45.466;11.066;2023-05-07T02:35:31;20.80;99.90
23347;DHT22;36852;45.466;11.066;2023-05-07T02:37:59;20.80;99.90
23347;DHT22;36852;45.466;11.066;2023-05-07T02:40:26;20.80;99.90
23347;DHT22;36852;45.466;11.066;2023-05-07T02:42:55;20.80;99.90
23347;DHT22;36852;45.466;11.066;2023-05-07T02:45:22;20.80;99.90
23347;DHT22;36852;45.466;11.066;2023-05-07T02:47:52;20.80;99.90
23347;DHT22;36852;45.466;11.066;2023-05-07T02:50:20;20.80;99.90
23347;DHT22;36852;45.466;11.066;2023-05-07T02:52:48;20.70;99.90
23347;DHT22;36852;45.466;11.066;2023-05-07T02:55:15;20.80;99.90
23347;DHT22;36852;45.466;11.066;2023-05-07T02:57:43;20.70;99.90
23347;DHT22;36852;45.466;11.066;2023-05-07T03:00:14;20.70;99.90
23347;DHT22;36852;45.466;11.066;2023-05-07T03:02:45;20.70;99.90
23347;DHT22;36852;45.466;11.066;2023-05-07T03:05:13;20.70;99.90
23347;DHT22;36852;45.466;11.066;2023-05-07T03:07:42;20.70;99.90
23347;DHT22;36852;45.466;11.066;2023-05-07T03:10:12;20.70;99.90
23347;DHT22;36852;45.466;11.066;2023-05-07T03:12:42;20.70;99.90
23347;DHT22;36852;45.466;11.066;2023-05-07T03:15:11;20.70;99.90
23347;DHT22;36852;45.466;11.066;2023-05-07T03:17:46;20.60;99.90
23347;DHT22;36852;45.466;11.066;2023-05-07T03:20:14;20.60;99.90
23347;DHT22;36852;45.466;11.066;2023-05-07T03:22:42;20.60;99.90
23347;DHT22;36852;45.466;11.066;2023-05-07T03:25:12;20.60;99.90
23347;DHT22;36852;45.466;11.066;2023-05-07T03:27:43;20.60;99.90
23347;DHT22;36852;45.466;11.066;2023-05-07T03:30:12;20.50;99.90
23347;DHT22;36852;45.466;11.066;2023-05-07T03:32:39;20.50;99.90
23347;DHT22;36852;45.466;11.066;2023-05-07T03:35:08;20.50;99.90
23347;DHT22;36852;45.466;11.066;2023-05-07T03:37:37;20.50;99.90
23347;DHT22;36852;45.466;11.066;2023-05-07T03:40:06;20.50;99.90
23347;DHT22;36852;45.466;11.066;2023-05-07T03:42:38;20.50;99.90
23347;DHT22;36852;45.466;11.066;2023-05-07T03:45:07;20.40;99.90
23347;DHT22;36852;45.466;11.066;2023-05-07T03:47:36;20.40;99.90
23347;DHT22;36852;45.466;11.066;2023-05-07T03:50:05;20.40;99.90
23347;DHT22;36852;45.466;11.066;2023-05-07T03:52:33;20.40;99.90
23347;DHT22;36852;45.466;11.066;2023-05-07T03:55:02;20.30;99.90
23347;DHT22;36852;45.466;11.066;2023-05-07T03:57:31;20.30;99.90
23347;DHT22;36852;45.466;11.066;2023-05-07T03:59:59;20.30;99.90
23347;DHT22;36852;45.466;11.066;2023-05-07T04:02:30;20.30;99.90
23347;DHT22;36852;45.466;11.066;2023-05-07T04:04:59;20.30;99.90
23347;DHT22;36852;45.466;11.066;2023-05-07T04:07:26;20.30;99.90
23347;DHT22;36852;45.466;11.066;2023-05-07T04:09:54;20.30;99.90
23347;DHT22;36852;45.466;11.066;2023-05-07T04:12:22;20.30;99.90
23347;DHT22;36852;45.466;11.066;2023-05-07T04:14:53;20.20;99.90
23347;DHT22;36852;45.466;11.066;2023-05-07T04:17:23;20.20;99.90
23347;DHT22;36852;45.466;11.066;2023-05-07T04:19:51;20.20;99.90
23347;DHT22;36852;45.466;11.066;2023-05-07T04:22:20;20.20;99.90
23347;DHT22;36852;45.466;11.066;2023-05-07T04:24:48;20.20;99.90
23347;DHT22;36852;45.466;11.066;2023-05-07T04:27:16;20.20;99.90
23347;DHT22;36852;45.466;11.066;2023-05-07T04:29:44;20.20;99.90
23347;DHT22;36852;45.466;11.066;2023-05-07T04:32:15;20.20;99.90
23347;DHT22;36852;45.466;11.066;2023-05-07T04:34:43;20.20;99.90
23347;DHT22;36852;45.466;11.066;2023-05-07T04:37:12;20.20;99.90
23347;DHT22;36852;45.466;11.066;2023-05-07T04:39:39;20.20;99.90
23347;DHT22;36852;45.466;11.066;2023-05-07T04:42:09;20.20;99.90
23347;DHT22;36852;45.466;11.066;2023-05-07T04:44:37;20.20;99.90
23347;DHT22;36852;45.466;11.066;2023-05-07T04:47:24;20.20;99.90
23347;DHT22;36852;45.466;11.066;2023-05-07T04:49:57;20.20;99.90
23347;DHT22;36852;45.466;11.066;2023-05-07T04:52:44;20.20;99.90
23347;DHT22;36852;45.466;11.066;2023-05-07T04:55:17;20.30;99.90
23347;DHT22;36852;45.466;11.066;2023-05-07T04:57:45;20.30;99.90
23347;DHT22;36852;45.466;11.066;2023-05-07T05:00:13;20.30;99.90
23347;DHT22;36852;45.466;11.066;2023-05-07T05:02:50;20.30;99.90
23347;DHT22;36852;45.466;11.066;2023-05-07T05:05:19;20.30;99.90
23347;DHT22;36852;45.466;11.066;2023-05-07T05:07:49;20.30;99.90
23347;DHT22;36852;45.466;11.066;2023-05-07T05:10:17;20.30;99.90
23347;DHT22;36852;45.466;11.066;2023-05-07T05:12:45;20.40;99.90
23347;DHT22;36852;45.466;11.066;2023-05-07T05:15:15;20.40;99.90
23347;DHT22;36852;45.466;11.066;2023-05-07T05:17:43;20.40;99.90
23347;DHT22;36852;45.466;11.066;2023-05-07T05:20:11;20.40;99.90
23347;DHT22;36852;45.466;11.066;2023-05-07T05:22:41;20.40;99.90
23347;DHT22;36852;45.466;11.066;2023-05-07T05:25:09;20.40;99.90
23347;DHT22;36852;45.466;11.066;2023-05-07T05:27:37;20.40;99.90
23347;DHT22;36852;45.466;11.066;2023-05-07T05:30:06;20.40;99.90
23347;DHT22;36852;45.466;11.066;2023-05-07T05:32:34;20.40;99.90
23347;DHT22;36852;45.466;11.066;2023-05-07T05:35:02;20.40;99.90
23347;DHT22;36852;45.466;11.066;2023-05-07T05:37:31;20.50;99.90
23347;DHT22;36852;45.466;11.066;2023-05-07T05:40:03;20.50;99.90
23347;DHT22;36852;45.466;11.066;2023-05-07T05:42:31;20.50;99.90
23347;DHT22;36852;45.466;11.066;2023-05-07T05:44:59;20.50;99.90
23347;DHT22;36852;45.466;11.066;2023-05-07T05:47:29;20.50;99.90
23347;DHT22;36852;45.466;11.066;2023-05-07T05:49:57;20.60;99.90
23347;DHT22;36852;45.466;11.066;2023-05-07T05:52:25;20.60;99.90
23347;DHT22;36852;45.466;11.066;2023-05-07T05:54:54;20.60;99.90
23347;DHT22;36852;45.466;11.066;2023-05-07T05:57:22;20.70;99.90
23347;DHT22;36852;45.466;11.066;2023-05-07T05:59:52;20.70;99.90
23347;DHT22;36852;45.466;11.066;2023-05-07T06:02:19;20.70;99.90
23347;DHT22;36852;45.466;11.066;2023-05-07T06:04:48;20.80;99.90
23347;DHT22;36852;45.466;11.066;2023-05-07T06:07:17;20.80;99.90
23347;DHT22;36852;45.466;11.066;2023-05-07T06:09:45;20.80;99.90
23347;DHT22;36852;45.466;11.066;2023-05-07T06:12:12;20.90;99.90
23347;DHT22;36852;45.466;11.066;2023-05-07T06:14:43;20.90;99.90
23347;DHT22;36852;45.466;11.066;2023-05-07T06:17:13;21.00;99.90
23347;DHT22;36852;45.466;11.066;2023-05-07T06:19:41;21.00;99.90
23347;DHT22;36852;45.466;11.066;2023-05-07T06:22:10;21.00;99.90
23347;DHT22;36852;45.466;11.066;2023-05-07T06:24:37;21.10;99.90
23347;DHT22;36852;45.466;11.066;2023-05-07T06:27:07;21.10;99.90
23347;DHT22;36852;45.466;11.066;2023-05-07T06:29:34;21.20;99.90
23347;DHT22;36852;45.466;11.066;2023-05-07T06:32:08;21.20;99.90
23347;DHT22;36852;45.466;11.066;2023-05-07T06:34:39;21.30;99.90
23347;DHT22;36852;45.466;11.066;2023-05-07T06:37:07;21.30;99.90
23347;DHT22;36852;45.466;11.066;2023-05-07T06:39:37;21.40;99.90
23347;DHT22;36852;45.466;11.066;2023-05-07T06:42:04;21.40;99.90
23347;DHT22;36852;45.466;11.066;2023-05-07T06:44:33;21.50;99.90
23347;DHT22;36852;45.466;11.066;2023-05-07T06:47:05;21.60;99.90
23347;DHT22;36852;45.466;11.066;2023-05-07T06:49:33;21.70;99.90
23347;DHT22;36852;45.466;11.066;2023-05-07T06:52:03;21.70;99.90
23347;DHT22;36852;45.466;11.066;2023-05-07T06:54:31;21.80;99.90
23347;DHT22;36852;45.466;11.066;2023-05-07T06:56:59;21.80;99.90
23347;DHT22;36852;45.466;11.066;2023-05-07T06:59:28;21.90;99.90
23347;DHT22;36852;45.466;11.066;2023-05-07T07:01:56;21.90;99.90
23347;DHT22;36852;45.466;11.066;2023-05-07T07:04:24;22.00;99.90
23347;DHT22;36852;45.466;11.066;2023-05-07T07:06:54;22.00;99.90
23347;DHT22;36852;45.466;11.066;2023-05-07T07:09:27;22.00;99.90
23347;DHT22;36852;45.466;11.066;2023-05-07T07:11:55;22.10;99.90
23347;DHT22;36852;45.466;11.066;2023-05-07T07:14:23;22.00;99.90
23347;DHT22;36852;45.466;11.066;2023-05-07T07:16:51;22.10;99.90
23347;DHT22;36852;45.466;11.066;2023-05-07T07:19:19;22.10;99.90
23347;DHT22;36852;45.466;11.066;2023-05-07T07:21:49;22.10;99.90
23347;DHT22;36852;45.466;11.066;2023-05-07T07:24:16;22.20;99.90
23347;DHT22;36852;45.466;11.066;2023-05-07T07:26:47;22.20;99.90
23347;DHT22;36852;45.466;11.066;2023-05-07T07:29:15;22.30;99.90
23347;DHT22;36852;45.466;11.066;2023-05-07T07:31:43;22.30;99.90
23347;DHT22;36852;45.466;11.066;2023-05-07T07:34:14;22.40;99.90
23347;DHT22;36852;45.466;11.066;2023-05-07T07:36:43;22.50;99.90
23347;DHT22;36852;45.466;11.066;2023-05-07T07:39:14;22.50;99.90
23347;DHT22;36852;45.466;11.066;2023-05-07T07:41:44;22.60;99.90
23347;DHT22;36852;45.466;11.066;2023-05-07T07:44:12;22.70;99.90
23347;DHT22;36852;45.466;11.066;2023-05-07T07:46:42;22.80;99.90
23347;DHT22;36852;45.466;11.066;2023-05-07T07:49:10;22.80;99.90
23347;DHT22;36852;45.466;11.066;2023-05-07T07:51:38;22.90;99.90
23347;DHT22;36852;45.466;11.066;2023-05-07T07:54:06;23.00;99.90
23347;DHT22;36852;45.466;11.066;2023-05-07T07:56:34;23.00;99.90
23347;DHT22;36852;45.466;11.066;2023-05-07T07:59:06;23.10;99.90
23347;DHT22;36852;45.466;11.066;2023-05-07T08:01:34;23.10;99.90
23347;DHT22;36852;45.466;11.066;2023-05-07T08:04:03;23.10;99.90
23347;DHT22;36852;45.466;11.066;2023-05-07T08:06:34;23.10;99.90
23347;DHT22;36852;45.466;11.066;2023-05-07T08:09:03;23.20;99.90
23347;DHT22;36852;45.466;11.066;2023-05-07T08:11:32;23.10;99.90
23347;DHT22;36852;45.466;11.066;2023-05-07T08:14:01;23.10;99.90
23347;DHT22;36852;45.466;11.066;2023-05-07T08:16:29;23.10;99.90
23347;DHT22;36852;45.466;11.066;2023-05-07T08:18:58;23.10;99.90
23347;DHT22;36852;45.466;11.066;2023-05-07T08:21:26;23.20;99.90
23347;DHT22;36852;45.466;11.066;2023-05-07T08:23:54;23.20;99.90
23347;DHT22;36852;45.466;11.066;2023-05-07T08:26:22;23.20;99.90
23347;DHT22;36852;45.466;11.066;2023-05-07T08:28:51;23.30;99.90
23347;DHT22;36852;45.466;11.066;2023-05-07T08:31:19;23.40;99.90
23347;DHT22;36852;45.466;11.066;2023-05-07T08:33:48;23.30;99.90
23347;DHT22;36852;45.466;11.066;2023-05-07T08:36:15;23.30;99.90
23347;DHT22;36852;45.466;11.066;2023-05-07T08:38:43;23.20;99.90
23347;DHT22;36852;45.466;11.066;2023-05-07T08:41:14;23.20;99.90
23347;DHT22;36852;45.466;11.066;2023-05-07T08:43:46;23.20;99.90
23347;DHT22;36852;45.466;11.066;2023-05-07T08:46:22;23.30;99.90
23347;DHT22;36852;45.466;11.066;2023-05-07T08:48:52;23.30;99.90
23347;DHT22;36852;45.466;11.066;2023-05-07T08:51:21;23.40;99.90
23347;DHT22;36852;45.466;11.066;2023-05-07T08:53:50;23.40;99.90
23347;DHT22;36852;45.466;11.066;2023-05-07T08:56:20;23.50;99.90
23347;DHT22;36852;45.466;11.066;2023-05-07T08:58:51;23.60;99.90
23347;DHT22;36852;45.466;11.066;2023-05-07T09:01:20;23.60;99.90
23347;DHT22;36852;45.466;11.066;2023-05-07T09:03:50;23.70;99.90
23347;DHT22;36852;45.466;11.066;2023-05-07T09:06:18;23.70;99.90
23347;DHT22;36852;45.466;11.066;2023-05-07T09:08:53;23.80;99.90
23347;DHT22;36852;45.466;11.066;2023-05-07T09:11:24;23.90;99.90
23347;DHT22;36852;45.466;11.066;2023-05-07T09:13:57;24.00;99.90
23347;DHT22;36852;45.466;11.066;2023-05-07T09:16:29;24.10;99.90
23347;DHT22;36852;45.466;11.066;2023-05-07T09:18:59;24.10;99.90
23347;DHT22;36852;45.466;11.066;2023-05-07T09:21:27;24.10;99.90
23347;DHT22;36852;45.466;11.066;2023-05-07T09:23:56;24.10;99.90
23347;DHT22;36852;45.466;11.066;2023-05-07T09:26:26;24.20;98.90
23347;DHT22;36852;45.466;11.066;2023-05-07T09:28:55;24.20;98.70
23347;DHT22;36852;45.466;11.066;2023-05-07T09:31:23;24.20;98.10
23347;DHT22;36852;45.466;11.066;2023-05-07T09:33:54;24.30;97.90
23347;DHT22;36852;45.466;11.066;2023-05-07T09:36:26;24.40;97.30
23347;DHT22;36852;45.466;11.066;2023-05-07T09:38:54;24.50;98.10
23347;DHT22;36852;45.466;11.066;2023-05-07T09:41:23;24.60;98.60
23347;DHT22;36852;45.466;11.066;2023-05-07T09:43:56;24.60;99.10
23347;DHT22;36852;45.466;11.066;2023-05-07T09:46:28;24.70;99.10
23347;DHT22;36852;45.466;11.066;2023-05-07T09:48:59;24.80;99.70
23347;DHT22;36852;45.466;11.066;2023-05-07T09:54:00;24.80;99.90
23347;DHT22;36852;45.466;11.066;2023-05-07T09:56:30;24.80;98.20
23347;DHT22;36852;45.466;11.066;2023-05-07T09:59:03;24.80;98.50
23347;DHT22;36852;45.466;11.066;2023-05-07T10:01:31;24.60;98.30
23347;DHT22;36852;45.466;11.066;2023-05-07T10:04:02;24.50;98.80
23347;DHT22;36852;45.466;11.066;2023-05-07T10:06:42;24.40;99.50
23347;DHT22;36852;45.466;11.066;2023-05-07T10:09:12;24.40;99.70
23347;DHT22;36852;45.466;11.066;2023-05-07T10:11:41;24.30;99.90
23347;DHT22;36852;45.466;11.066;2023-05-07T10:14:12;24.30;99.90
23347;DHT22;36852;45.466;11.066;2023-05-07T10:16:41;24.30;99.90
23347;DHT22;36852;45.466;11.066;2023-05-07T10:19:11;24.40;99.90
23347;DHT22;36852;45.466;11.066;2023-05-07T10:21:56;24.40;99.90
23347;DHT22;36852;45.466;11.066;2023-05-07T10:24:36;24.50;99.90
23347;DHT22;36852;45.466;11.066;2023-05-07T10:27:06;24.60;99.90
23347;DHT22;36852;45.466;11.066;2023-05-07T10:29:42;24.60;99.90
23347;DHT22;36852;45.466;11.066;2023-05-07T10:34:43;24.70;99.90
23347;DHT22;36852;45.466;11.066;2023-05-07T10:37:12;24.70;99.90
23347;DHT22;36852;45.466;11.066;2023-05-07T10:39:41;24.80;99.90
23347;DHT22;36852;45.466;11.066;2023-05-07T10:42:11;24.80;99.90
23347;DHT22;36852;45.466;11.066;2023-05-07T10:44:41;24.90;99.90
23347;DHT22;36852;45.466;11.066;2023-05-07T10:47:12;24.90;99.90
23347;DHT22;36852;45.466;11.066;2023-05-07T10:52:23;25.00;99.90
23347;DHT22;36852;45.466;11.066;2023-05-07T10:55:19;25.10;99.90
23347;DHT22;36852;45.466;11.066;2023-05-07T11:00:57;25.20;99.90
23347;DHT22;36852;45.466;11.066;2023-05-07T11:03:28;25.20;99.80
23347;DHT22;36852;45.466;11.066;2023-05-07T11:06:15;25.20;99.50
23347;DHT22;36852;45.466;11.066;2023-05-07T11:08:56;25.30;99.90
23347;DHT22;36852;45.466;11.066;2023-05-07T11:11:47;25.30;99.60
23347;DHT22;36852;45.466;11.066;2023-05-07T11:17:15;25.30;99.00
23347;DHT22;36852;45.466;11.066;2023-05-07T11:19:50;25.30;99.00
23347;DHT22;36852;45.466;11.066;2023-05-07T11:22:38;25.30;98.70
23347;DHT22;36852;45.466;11.066;2023-05-07T11:25:08;25.30;98.60
23347;DHT22;36852;45.466;11.066;2023-05-07T11:27:37;25.30;99.00
23347;DHT22;36852;45.466;11.066;2023-05-07T11:30:05;25.30;99.90
23347;DHT22;36852;45.466;11.066;2023-05-07T11:32:33;25.40;99.90
23347;DHT22;36852;45.466;11.066;2023-05-07T11:35:02;25.50;99.90
23347;DHT22;36852;45.466;11.066;2023-05-07T11:37:29;25.60;99.90
23347;DHT22;36852;45.466;11.066;2023-05-07T11:40:04;25.70;99.90
23347;DHT22;36852;45.466;11.066;2023-05-07T11:42:35;25.80;99.90
23347;DHT22;36852;45.466;11.066;2023-05-07T11:45:05;25.90;99.90
23347;DHT22;36852;45.466;11.066;2023-05-07T11:47:34;26.00;99.90
23347;DHT22;36852;45.466;11.066;2023-05-07T11:50:05;26.00;99.90
23347;DHT22;36852;45.466;11.066;2023-05-07T11:52:33;26.10;99.90
23347;DHT22;36852;45.466;11.066;2023-05-07T11:55:02;26.10;98.80
23347;DHT22;36852;45.466;11.066;2023-05-07T11:57:33;26.10;97.90
23347;DHT22;36852;45.466;11.066;2023-05-07T12:00:02;26.20;98.40
23347;DHT22;36852;45.466;11.066;2023-05-07T12:02:40;26.30;97.80
23347;DHT22;36852;45.466;11.066;2023-05-07T12:05:09;26.30;97.30
23347;DHT22;36852;45.466;11.066;2023-05-07T12:07:37;26.40;96.70
23347;DHT22;36852;45.466;11.066;2023-05-07T12:10:06;26.50;96.20
23347;DHT22;36852;45.466;11.066;2023-05-07T12:12:41;26.50;95.60
23347;DHT22;36852;45.466;11.066;2023-05-07T12:15:16;26.60;96.00
23347;DHT22;36852;45.466;11.066;2023-05-07T12:17:44;26.60;96.10
23347;DHT22;36852;45.466;11.066;2023-05-07T12:20:12;26.60;95.30
23347;DHT22;36852;45.466;11.066;2023-05-07T12:22:40;26.50;95.00
23347;DHT22;36852;45.466;11.066;2023-05-07T12:25:09;26.60;95.40
23347;DHT22;36852;45.466;11.066;2023-05-07T12:27:40;26.60;95.50
23347;DHT22;36852;45.466;11.066;2023-05-07T12:30:10;26.80;96.10
23347;DHT22;36852;45.466;11.066;2023-05-07T12:32:38;26.90;96.40
23347;DHT22;36852;45.466;11.066;2023-05-07T12:35:07;27.00;96.20
23347;DHT22;36852;45.466;11.066;2023-05-07T12:37:37;27.00;95.80
23347;DHT22;36852;45.466;11.066;2023-05-07T12:40:08;27.10;94.90
23347;DHT22;36852;45.466;11.066;2023-05-07T12:42:38;27.20;94.50
23347;DHT22;36852;45.466;11.066;2023-05-07T12:45:15;27.30;93.80
23347;DHT22;36852;45.466;11.066;2023-05-07T12:47:44;27.40;92.30
23347;DHT22;36852;45.466;11.066;2023-05-07T12:50:15;27.50;91.50
23347;DHT22;36852;45.466;11.066;2023-05-07T12:52:49;27.50;91.60
23347;DHT22;36852;45.466;11.066;2023-05-07T12:55:17;27.60;92.30
23347;DHT22;36852;45.466;11.066;2023-05-07T12:57:49;27.60;92.50
23347;DHT22;36852;45.466;11.066;2023-05-07T13:00:18;27.70;91.40
23347;DHT22;36852;45.466;11.066;2023-05-07T13:02:48;27.80;92.30
23347;DHT22;36852;45.466;11.066;2023-05-07T13:05:19;27.80;92.60
23347;DHT22;36852;45.466;11.066;2023-05-07T13:07:54;27.90;91.30
23347;DHT22;36852;45.466;11.066;2023-05-07T13:10:23;27.90;92.30
23347;DHT22;36852;45.466;11.066;2023-05-07T13:12:52;28.00;92.50
23347;DHT22;36852;45.466;11.066;2023-05-07T13:15:20;28.00;91.40
23347;DHT22;36852;45.466;11.066;2023-05-07T13:17:49;28.10;90.80
23347;DHT22;36852;45.466;11.066;2023-05-07T13:20:17;28.00;88.40
23347;DHT22;36852;45.466;11.066;2023-05-07T13:22:45;28.10;90.60
23347;DHT22;36852;45.466;11.066;2023-05-07T13:25:14;28.20;90.40
23347;DHT22;36852;45.466;11.066;2023-05-07T13:27:43;28.20;90.50
23347;DHT22;36852;45.466;11.066;2023-05-07T13:30:13;28.30;88.30
23347;DHT22;36852;45.466;11.066;2023-05-07T13:32:44;28.30;89.50
23347;DHT22;36852;45.466;11.066;2023-05-07T13:35:13;28.40;88.30
23347;DHT22;36852;45.466;11.066;2023-05-07T13:37:41;28.50;89.40
23347;DHT22;36852;45.466;11.066;2023-05-07T13:40:10;28.70;90.50
23347;DHT22;36852;45.466;11.066;2023-05-07T13:42:38;28.80;90.60
23347;DHT22;36852;45.466;11.066;2023-05-07T13:45:07;28.90;88.40
23347;DHT22;36852;45.466;11.066;2023-05-07T13:47:36;29.00;89.70
23347;DHT22;36852;45.466;11.066;2023-05-07T13:50:09;29.20;89.00
23347;DHT22;36852;45.466;11.066;2023-05-07T13:52:46;29.30;87.00
23347;DHT22;36852;45.466;11.066;2023-05-07T13:55:21;29.10;86.70
23347;DHT22;36852;45.466;11.066;2023-05-07T13:57:55;29.20;82.60
23347;DHT22;36852;45.466;11.066;2023-05-07T14:00:25;29.00;83.10
23347;DHT22;36852;45.466;11.066;2023-05-07T14:02:55;29.10;85.90
23347;DHT22;36852;45.466;11.066;2023-05-07T14:05:24;29.20;85.10
23347;DHT22;36852;45.466;11.066;2023-05-07T14:07:57;29.30;84.30
23347;DHT22;36852;45.466;11.066;2023-05-07T14:10:25;29.60;86.40
23347;DHT22;36852;45.466;11.066;2023-05-07T14:12:53;29.70;85.40
23347;DHT22;36852;45.466;11.066;2023-05-07T14:15:22;29.90;84.40
23347;DHT22;36852;45.466;11.066;2023-05-07T14:17:49;30.00;81.90
23347;DHT22;36852;45.466;11.066;2023-05-07T14:20:17;30.10;78.00
23347;DHT22;36852;45.466;11.066;2023-05-07T14:22:45;30.10;76.80
23347;DHT22;36852;45.466;11.066;2023-05-07T14:25:16;29.70;77.80
23347;DHT22;36852;45.466;11.066;2023-05-07T14:27:45;29.70;78.60
23347;DHT22;36852;45.466;11.066;2023-05-07T14:30:13;29.80;78.90
23347;DHT22;36852;45.466;11.066;2023-05-07T14:32:42;29.80;81.60
23347;DHT22;36852;45.466;11.066;2023-05-07T14:35:10;29.70;80.90
23347;DHT22;36852;45.466;11.066;2023-05-07T14:37:38;29.50;81.90
23347;DHT22;36852;45.466;11.066;2023-05-07T14:40:10;29.60;84.00
23347;DHT22;36852;45.466;11.066;2023-05-07T14:42:39;29.90;83.50
23347;DHT22;36852;45.466;11.066;2023-05-07T14:45:09;30.20;83.50
23347;DHT22;36852;45.466;11.066;2023-05-07T14:47:38;30.60;81.40
23347;DHT22;36852;45.466;11.066;2023-05-07T14:50:06;30.60;78.90
23347;DHT22;36852;45.466;11.066;2023-05-07T14:52:34;30.70;81.00
23347;DHT22;36852;45.466;11.066;2023-05-07T14:55:02;30.90;79.40
23347;DHT22;36852;45.466;11.066;2023-05-07T14:57:30;31.10;79.00
23347;DHT22;36852;45.466;11.066;2023-05-07T15:00:04;31.30;77.80
23347;DHT22;36852;45.466;11.066;2023-05-07T15:02:32;31.50;79.90
23347;DHT22;36852;45.466;11.066;2023-05-07T15:05:01;31.70;79.70
23347;DHT22;36852;45.466;11.066;2023-05-07T15:07:29;31.70;77.90
23347;DHT22;36852;45.466;11.066;2023-05-07T15:09:58;31.60;77.80
23347;DHT22;36852;45.466;11.066;2023-05-07T15:12:27;31.40;78.40
23347;DHT22;36852;45.466;11.066;2023-05-07T15:14:56;31.20;78.80
23347;DHT22;36852;45.466;11.066;2023-05-07T15:17:25;31.00;79.10
23347;DHT22;36852;45.466;11.066;2023-05-07T15:19:53;30.70;80.70
23347;DHT22;36852;45.466;11.066;2023-05-07T15:22:21;30.50;81.60
23347;DHT22;36852;45.466;11.066;2023-05-07T15:24:49;30.30;81.20
23347;DHT22;36852;45.466;11.066;2023-05-07T15:27:17;30.20;81.20
23347;DHT22;36852;45.466;11.066;2023-05-07T15:29:45;30.00;81.70
23347;DHT22;36852;45.466;11.066;2023-05-07T15:32:13;29.90;82.20
23347;DHT22;36852;45.466;11.066;2023-05-07T15:34:40;29.80;82.50
23347;DHT22;36852;45.466;11.066;2023-05-07T15:37:08;29.60;82.70
23347;DHT22;36852;45.466;11.066;2023-05-07T15:39:36;29.50;83.00
23347;DHT22;36852;45.466;11.066;2023-05-07T15:42:07;29.40;82.00
23347;DHT22;36852;45.466;11.066;2023-05-07T15:44:38;29.20;82.30